createdAt,value
2022-11-26T00:00:30.560Z,8.27
2022-11-26T00:02:58.605Z,8.90
2022-11-26T00:05:31.015Z,7.30
2022-11-26T00:08:00.524Z,8.65
2022-11-26T00:10:32.321Z,8.43
2022-11-26T00:13:00.046Z,8.10
2022-11-26T00:15:29.539Z,9.00
2022-11-26T00:17:57.804Z,8.90
2022-11-26T00:20:30.312Z,8.20
2022-11-26T00:23:01.343Z,8.40
2022-11-26T00:25:39.603Z,9.13
2022-11-26T00:28:24.113Z,9.25
2022-11-26T00:30:51.893Z,8.23
2022-11-26T00:33:19.582Z,9.20
2022-11-26T00:35:54.914Z,9.43
2022-11-26T00:38:23.272Z,10.07
2022-11-26T00:40:52.381Z,10.18
2022-11-26T00:43:21.246Z,11.00
2022-11-26T00:45:50.471Z,9.73
2022-11-26T00:48:19.147Z,11.02
2022-11-26T00:50:49.663Z,10.82
2022-11-26T00:53:20.361Z,11.75
2022-11-26T00:55:50.848Z,10.10
2022-11-26T00:58:28.296Z,10.85
2022-11-26T01:00:57.184Z,10.35
2022-11-26T01:03:25.665Z,11.25
2022-11-26T01:05:55.573Z,11.75
2022-11-26T01:08:30.645Z,12.15
2022-11-26T01:10:58.759Z,11.88
2022-11-26T01:13:28.544Z,11.88
2022-11-26T01:15:56.575Z,13.15
2022-11-26T01:18:24.900Z,12.43
2022-11-26T01:20:52.836Z,12.20
2022-11-26T01:23:21.233Z,12.13
2022-11-26T01:25:49.043Z,12.73
2022-11-26T01:28:18.731Z,13.02
2022-11-26T01:30:47.919Z,12.25
2022-11-26T01:33:15.637Z,11.95
2022-11-26T01:35:43.319Z,12.38
2022-11-26T01:38:13.777Z,12.27
2022-11-26T01:41:00.936Z,13.70
2022-11-26T01:43:30.134Z,12.13
2022-11-26T01:45:59.094Z,11.05
2022-11-26T01:48:29.842Z,13.18
2022-11-26T01:51:00.329Z,11.93
2022-11-26T01:53:35.929Z,13.52
2022-11-26T01:56:06.888Z,12.43
2022-11-26T01:58:40.119Z,12.52
2022-11-26T02:01:10.187Z,13.10
2022-11-26T02:03:42.757Z,13.85
2022-11-26T02:06:15.115Z,11.70
2022-11-26T02:08:43.529Z,12.48
2022-11-26T02:11:17.803Z,13.20
2022-11-26T02:13:47.397Z,12.02
2022-11-26T02:16:24.556Z,13.02
2022-11-26T02:19:01.361Z,13.10
2022-11-26T02:21:29.542Z,13.25
2022-11-26T02:24:18.840Z,12.73
2022-11-26T02:27:29.634Z,13.13
2022-11-26T02:30:07.069Z,12.25
2022-11-26T02:32:41.987Z,12.38
2022-11-26T02:35:15.844Z,11.80
2022-11-26T02:37:47.929Z,11.32
2022-11-26T02:40:15.611Z,11.82
2022-11-26T02:42:43.250Z,12.15
2022-11-26T02:45:15.332Z,11.60
2022-11-26T02:47:46.689Z,13.50
2022-11-26T02:50:19.798Z,13.00
2022-11-26T02:52:49.457Z,12.85
2022-11-26T02:55:21.308Z,12.02
2022-11-26T02:57:51.641Z,11.80
2022-11-26T03:00:22.058Z,12.02
2022-11-26T03:02:52.176Z,12.98
2022-11-26T03:05:20.748Z,12.48
2022-11-26T03:07:52.470Z,11.85
2022-11-26T03:10:25.496Z,10.15
2022-11-26T03:12:53.058Z,10.80
2022-11-26T03:15:22.102Z,11.38
2022-11-26T03:17:49.761Z,10.70
2022-11-26T03:20:17.731Z,10.90
2022-11-26T03:22:45.636Z,11.20
2022-11-26T03:25:14.175Z,10.23
2022-11-26T03:27:41.888Z,11.23
2022-11-26T03:30:10.493Z,11.95
2022-11-26T03:32:39.440Z,11.57
2022-11-26T03:35:07.427Z,11.23
2022-11-26T03:37:38.293Z,12.05
2022-11-26T03:40:07.792Z,13.32
2022-11-26T03:42:35.681Z,12.07
2022-11-26T03:45:04.194Z,12.70
2022-11-26T03:47:31.745Z,11.93
2022-11-26T03:50:00.715Z,12.05
2022-11-26T03:52:28.297Z,11.60
2022-11-26T03:54:55.872Z,11.88
2022-11-26T03:57:23.616Z,13.82
2022-11-26T03:59:51.199Z,12.68
2022-11-26T04:02:18.813Z,12.18
2022-11-26T04:04:46.448Z,11.07
2022-11-26T04:07:15.364Z,12.45
2022-11-26T04:09:42.952Z,12.45
2022-11-26T04:12:10.536Z,12.25
2022-11-26T04:14:38.600Z,12.20
2022-11-26T04:17:06.435Z,11.68
2022-11-26T04:19:34.156Z,11.95
2022-11-26T04:22:01.776Z,11.65
2022-11-26T04:24:31.289Z,11.93
2022-11-26T04:26:58.901Z,11.23
2022-11-26T04:29:26.643Z,12.15
2022-11-26T04:31:54.299Z,11.10
2022-11-26T04:34:21.947Z,10.90
2022-11-26T04:36:49.558Z,13.70
2022-11-26T04:39:17.137Z,12.07
2022-11-26T04:41:46.115Z,12.95
2022-11-26T04:44:13.934Z,12.10
2022-11-26T04:46:41.509Z,10.77
2022-11-26T04:49:09.191Z,11.95
2022-11-26T04:51:36.792Z,11.20
2022-11-26T04:54:08.628Z,12.18
2022-11-26T04:56:39.141Z,11.32
2022-11-26T04:59:08.146Z,10.93
2022-11-26T05:01:35.943Z,11.95
2022-11-26T05:04:04.009Z,10.63
2022-11-26T05:06:31.639Z,10.60
2022-11-26T05:08:59.386Z,12.43
2022-11-26T05:11:27.045Z,10.82
2022-11-26T05:13:54.643Z,12.45
2022-11-26T05:16:23.609Z,11.25
2022-11-26T05:18:51.219Z,10.85
2022-11-26T05:21:18.879Z,10.88
2022-11-26T05:23:46.467Z,11.35
2022-11-26T05:26:14.134Z,11.32
2022-11-26T05:28:41.805Z,10.23
2022-11-26T05:31:09.487Z,11.02
2022-11-26T05:33:38.832Z,10.70
2022-11-26T05:36:06.706Z,12.05
2022-11-26T05:38:34.557Z,12.02
2022-11-26T05:41:02.246Z,11.05
2022-11-26T05:43:29.880Z,12.32
2022-11-26T05:45:57.583Z,12.38
2022-11-26T05:48:25.191Z,12.68
2022-11-26T05:50:59.180Z,11.95
2022-11-26T05:53:27.414Z,11.63
2022-11-26T05:55:55.380Z,12.40
2022-11-26T05:58:22.935Z,12.73
2022-11-26T06:00:51.004Z,13.45
2022-11-26T06:03:20.483Z,12.82
2022-11-26T06:05:48.582Z,12.10
2022-11-26T06:08:17.568Z,12.73
2022-11-26T06:10:45.994Z,11.82
2022-11-26T06:13:14.089Z,11.93
2022-11-26T06:15:41.875Z,13.70
2022-11-26T06:18:09.594Z,13.85
2022-11-26T06:20:37.934Z,12.77
2022-11-26T06:23:05.994Z,15.48
2022-11-26T06:25:34.856Z,13.20
2022-11-26T06:28:02.698Z,13.75
2022-11-26T06:30:30.426Z,13.20
2022-11-26T06:32:58.046Z,13.82
2022-11-26T06:35:25.637Z,12.85
2022-11-26T06:37:53.208Z,14.38
2022-11-26T06:40:21.438Z,14.98
2022-11-26T06:42:51.645Z,15.75
2022-11-26T06:45:19.360Z,13.88
2022-11-26T06:47:47.769Z,14.77
2022-11-26T06:50:16.223Z,13.98
2022-11-26T06:52:43.973Z,14.68
2022-11-26T06:55:11.825Z,14.23
2022-11-26T06:57:39.513Z,14.10
2022-11-26T07:00:10.063Z,13.50
2022-11-26T07:02:38.260Z,16.38
2022-11-26T07:05:06.092Z,13.10
2022-11-26T07:07:33.711Z,15.30
2022-11-26T07:10:01.304Z,13.75
2022-11-26T07:12:28.894Z,15.63
2022-11-26T07:14:56.499Z,15.90
2022-11-26T07:17:25.591Z,14.40
2022-11-26T07:19:53.181Z,14.88
2022-11-26T07:22:20.803Z,16.13
2022-11-26T07:24:48.435Z,16.00
2022-11-26T07:27:16.166Z,15.10
2022-11-26T07:29:44.046Z,15.93
2022-11-26T07:32:11.760Z,15.60
2022-11-26T07:34:41.021Z,14.48
2022-11-26T07:37:08.801Z,15.57
2022-11-26T07:39:36.349Z,15.35
2022-11-26T07:42:03.900Z,13.90
2022-11-26T07:44:32.599Z,13.98
2022-11-26T07:47:00.499Z,14.27
2022-11-26T07:49:28.215Z,14.80
2022-11-26T07:51:57.424Z,13.35
2022-11-26T07:54:25.036Z,14.10
2022-11-26T07:56:52.613Z,14.27
2022-11-26T07:59:20.209Z,14.73
2022-11-26T08:01:48.242Z,14.68
2022-11-26T08:04:16.197Z,14.27
2022-11-26T08:06:45.088Z,14.05
2022-11-26T08:09:14.217Z,13.95
2022-11-26T08:11:41.799Z,14.57
2022-11-26T08:14:16.016Z,13.55
2022-11-26T08:16:44.220Z,16.77
2022-11-26T08:19:14.347Z,13.15
2022-11-26T08:21:45.748Z,13.68
2022-11-26T08:24:17.125Z,11.77
2022-11-26T08:26:49.549Z,12.60
2022-11-26T08:29:17.168Z,13.43
2022-11-26T08:31:46.722Z,16.70
2022-11-26T08:34:16.046Z,13.40
2022-11-26T08:36:44.439Z,13.45
2022-11-26T08:39:15.129Z,14.35
2022-11-26T08:41:47.343Z,14.02
2022-11-26T08:44:18.190Z,13.68
2022-11-26T08:46:45.705Z,12.45
2022-11-26T08:49:14.835Z,12.82
2022-11-26T08:51:43.283Z,12.85
2022-11-26T08:54:11.512Z,13.43
2022-11-26T08:56:40.562Z,13.02
2022-11-26T08:59:08.223Z,12.85
2022-11-26T09:01:36.200Z,13.27
2022-11-26T09:04:05.254Z,12.10
2022-11-26T09:06:36.720Z,12.48
2022-11-26T09:09:15.456Z,12.25
2022-11-26T09:11:47.524Z,13.95
2022-11-26T09:14:16.822Z,13.05
2022-11-26T09:16:44.555Z,13.10
2022-11-26T09:19:13.689Z,12.82
2022-11-26T09:21:41.405Z,14.02
2022-11-26T09:24:09.114Z,12.98
2022-11-26T09:26:36.786Z,12.73
2022-11-26T09:29:05.687Z,12.75
2022-11-26T09:31:33.825Z,13.70
2022-11-26T09:34:02.897Z,11.65
2022-11-26T09:36:31.065Z,13.57
2022-11-26T09:39:00.050Z,11.93
2022-11-26T09:41:40.497Z,11.25
2022-11-26T09:44:29.834Z,10.45
2022-11-26T09:47:14.318Z,12.20
2022-11-26T09:49:52.452Z,12.02
2022-11-26T09:52:23.690Z,11.52
2022-11-26T09:55:03.497Z,10.88
2022-11-26T09:57:39.594Z,11.75
2022-11-26T10:00:22.182Z,11.30
2022-11-26T10:02:52.944Z,11.77
2022-11-26T10:05:21.790Z,10.05
2022-11-26T10:08:02.760Z,11.98
2022-11-26T10:10:37.923Z,10.48
2022-11-26T10:13:20.003Z,9.27
2022-11-26T10:16:04.532Z,9.48
2022-11-26T10:18:41.421Z,10.05
2022-11-26T10:21:27.342Z,11.30
2022-11-26T10:24:15.842Z,12.00
2022-11-26T10:26:44.479Z,10.15
2022-11-26T10:29:22.053Z,10.13
2022-11-26T10:31:54.350Z,11.80
2022-11-26T10:34:32.259Z,10.57
2022-11-26T10:37:05.253Z,10.55
2022-11-26T10:39:33.008Z,12.15
2022-11-26T10:42:05.354Z,9.95
2022-11-26T10:44:36.884Z,12.35
2022-11-26T10:47:27.922Z,11.88
2022-11-26T10:49:58.361Z,10.60
2022-11-26T10:52:28.847Z,12.77
2022-11-26T10:55:20.777Z,13.02
2022-11-26T10:57:52.240Z,11.15
2022-11-26T11:00:34.143Z,9.85
2022-11-26T11:03:05.269Z,12.50
2022-11-26T11:05:34.459Z,10.80
2022-11-26T11:08:02.227Z,10.77
2022-11-26T11:10:30.125Z,11.82
2022-11-26T11:13:12.608Z,11.10
2022-11-26T11:15:41.840Z,12.45
2022-11-26T11:18:19.493Z,12.02
2022-11-26T11:20:54.957Z,15.63
2022-11-26T11:23:40.093Z,14.45
2022-11-26T11:26:18.437Z,14.57
2022-11-26T11:28:49.250Z,13.02
2022-11-26T11:31:20.090Z,15.73
2022-11-26T11:33:50.301Z,12.88
2022-11-26T11:36:25.647Z,14.57
2022-11-26T11:38:54.910Z,12.90
2022-11-26T11:41:28.186Z,14.65
2022-11-26T11:44:07.138Z,17.50
2022-11-26T11:46:59.547Z,14.38
2022-11-26T11:49:40.099Z,16.25
2022-11-26T11:52:17.755Z,16.83
2022-11-26T11:54:56.423Z,16.45
2022-11-26T11:57:38.208Z,14.55
2022-11-26T12:00:13.304Z,13.98
2022-11-26T12:03:04.040Z,16.05
2022-11-26T12:05:41.985Z,14.95
2022-11-26T12:08:24.755Z,14.07
2022-11-26T12:11:05.028Z,12.45
2022-11-26T12:13:37.578Z,14.82
2022-11-26T12:16:09.696Z,13.32
2022-11-26T12:18:43.231Z,13.40
2022-11-26T12:21:14.349Z,14.25
2022-11-26T12:23:49.025Z,13.50
2022-11-26T12:26:21.515Z,13.07
2022-11-26T12:28:59.407Z,14.35
2022-11-26T12:31:33.800Z,14.85
2022-11-26T12:34:08.783Z,13.57
2022-11-26T12:36:46.082Z,15.07
2022-11-26T12:39:19.465Z,12.65
2022-11-26T12:41:54.117Z,13.73
2022-11-26T12:44:28.759Z,15.38
2022-11-26T12:47:02.699Z,13.50
2022-11-26T12:49:36.608Z,13.15
2022-11-26T12:52:17.186Z,13.55
2022-11-26T12:54:54.145Z,14.70
2022-11-26T12:57:25.942Z,13.75
2022-11-26T12:59:59.884Z,14.77
2022-11-26T13:02:31.391Z,14.15
2022-11-26T13:04:59.947Z,13.82
2022-11-26T13:07:45.648Z,13.02
2022-11-26T13:10:27.785Z,15.32
2022-11-26T13:13:06.392Z,14.95
2022-11-26T13:15:47.241Z,13.18
2022-11-26T13:18:19.912Z,16.88
2022-11-26T13:21:06.148Z,16.52
2022-11-26T13:23:52.256Z,15.23
2022-11-26T13:26:29.799Z,15.25
2022-11-26T13:29:28.864Z,15.57
2022-11-26T13:32:14.697Z,17.02
2022-11-26T13:35:03.751Z,18.05
2022-11-26T13:38:04.813Z,15.70
2022-11-26T13:41:01.119Z,15.65
2022-11-26T13:43:59.811Z,14.68
2022-11-26T13:46:30.472Z,15.60
2022-11-26T13:49:05.280Z,15.20
2022-11-26T13:51:40.340Z,15.50
2022-11-26T13:54:13.997Z,15.48
2022-11-26T13:56:47.797Z,16.42
2022-11-26T13:59:28.857Z,16.60
2022-11-26T14:01:57.129Z,14.65
2022-11-26T14:04:52.734Z,14.50
2022-11-26T14:07:21.799Z,13.45
2022-11-26T14:09:57.766Z,13.82
2022-11-26T14:13:08.017Z,13.88
2022-11-26T14:16:05.327Z,13.40
2022-11-26T14:19:00.820Z,13.52
2022-11-26T14:21:31.757Z,13.70
2022-11-26T14:24:01.428Z,13.32
2022-11-26T14:26:34.049Z,13.77
2022-11-26T14:29:13.179Z,14.68
2022-11-26T14:31:44.153Z,13.88
2022-11-26T14:34:16.925Z,12.77
2022-11-26T14:36:54.421Z,14.48
2022-11-26T14:39:22.489Z,14.02
2022-11-26T14:41:57.890Z,15.02
2022-11-26T14:44:31.518Z,14.55
2022-11-26T14:47:02.113Z,13.05
2022-11-26T14:49:36.855Z,14.43
2022-11-26T14:52:22.659Z,13.90
2022-11-26T14:54:53.907Z,15.35
2022-11-26T14:57:26.234Z,14.98
2022-11-26T15:00:04.050Z,15.00
2022-11-26T15:02:32.554Z,16.48
2022-11-26T15:05:02.522Z,14.60
2022-11-26T15:07:31.724Z,15.48
2022-11-26T15:10:08.446Z,14.90
2022-11-26T15:12:37.140Z,14.60
2022-11-26T15:15:08.216Z,14.75
2022-11-26T15:17:36.286Z,15.77
2022-11-26T15:20:08.778Z,15.00
2022-11-26T15:22:39.127Z,13.35
2022-11-26T15:25:17.294Z,15.60
2022-11-26T15:27:53.011Z,15.55
2022-11-26T15:30:25.735Z,15.20
2022-11-26T15:33:01.542Z,15.02
2022-11-26T15:35:30.369Z,16.80
2022-11-26T15:37:58.162Z,18.52
2022-11-26T15:40:32.341Z,15.07
2022-11-26T15:43:03.658Z,16.35
2022-11-26T15:45:40.264Z,18.42
2022-11-26T15:48:27.657Z,16.45
2022-11-26T15:51:06.261Z,16.92
2022-11-26T15:53:36.810Z,16.55
2022-11-26T15:56:09.208Z,17.25
2022-11-26T15:58:40.393Z,17.95
2022-11-26T16:01:18.032Z,17.10
2022-11-26T16:03:47.858Z,16.08
2022-11-26T16:06:29.184Z,17.10
2022-11-26T16:09:06.438Z,19.77
2022-11-26T16:11:37.045Z,16.63
2022-11-26T16:14:24.801Z,17.00
2022-11-26T16:16:54.256Z,18.80
2022-11-26T16:19:23.025Z,18.88
2022-11-26T16:21:53.232Z,18.33
2022-11-26T16:24:27.501Z,20.42
2022-11-26T16:26:58.509Z,17.33
2022-11-26T16:29:26.582Z,17.95
2022-11-26T16:31:56.041Z,18.63
2022-11-26T16:34:26.016Z,20.20
2022-11-26T16:37:01.841Z,17.85
2022-11-26T16:42:23.110Z,18.27
2022-11-26T16:44:51.050Z,18.17
2022-11-26T16:47:24.908Z,17.83
2022-11-26T16:49:53.745Z,20.13
2022-11-26T16:52:21.988Z,18.58
2022-11-26T16:54:50.239Z,16.80
2022-11-26T16:57:20.516Z,17.00
2022-11-26T16:59:50.870Z,19.13
2022-11-26T17:02:22.111Z,17.15
2022-11-26T17:04:50.608Z,17.00
2022-11-26T17:07:22.087Z,17.00
2022-11-26T17:09:50.204Z,18.20
2022-11-26T17:12:20.141Z,17.88
2022-11-26T17:14:48.487Z,16.17
2022-11-26T17:17:20.628Z,19.13
2022-11-26T17:19:53.069Z,18.55
2022-11-26T17:22:21.676Z,17.98
2022-11-26T17:24:49.644Z,16.48
2022-11-26T17:27:19.708Z,16.38
2022-11-26T17:29:48.795Z,18.65
2022-11-26T17:32:29.746Z,16.60
2022-11-26T17:35:01.691Z,18.63
2022-11-26T17:37:30.785Z,18.98
2022-11-26T17:40:01.798Z,17.10
2022-11-26T17:42:33.583Z,16.73
2022-11-26T17:45:07.724Z,17.25
2022-11-26T17:47:35.380Z,17.40
2022-11-26T17:50:05.152Z,17.40
2022-11-26T17:52:32.723Z,19.00
2022-11-26T17:55:00.377Z,17.45
2022-11-26T17:57:28.291Z,16.73
2022-11-26T17:59:56.627Z,16.75
2022-11-26T18:02:24.281Z,17.67
2022-11-26T18:04:51.848Z,15.07
2022-11-26T18:07:20.845Z,17.42
2022-11-26T18:09:48.743Z,17.27
2022-11-26T18:12:24.449Z,17.48
2022-11-26T18:14:53.591Z,15.13
2022-11-26T18:17:21.860Z,18.15
2022-11-26T18:19:50.165Z,16.98
2022-11-26T18:22:21.702Z,15.15
2022-11-26T18:24:56.520Z,15.88
2022-11-26T18:27:26.135Z,17.08
2022-11-26T18:29:53.731Z,16.67
2022-11-26T18:32:21.698Z,18.10
2022-11-26T18:34:50.343Z,18.17
2022-11-26T18:37:18.928Z,17.63
2022-11-26T18:39:47.924Z,18.52
2022-11-26T18:42:35.997Z,17.63
2022-11-26T18:45:09.607Z,16.27
2022-11-26T18:47:37.570Z,15.48
2022-11-26T18:50:06.471Z,15.38
2022-11-26T18:52:34.362Z,16.05
2022-11-26T18:55:07.350Z,15.40
2022-11-26T18:57:35.396Z,15.15
2022-11-26T19:00:03.604Z,14.77
2022-11-26T19:02:31.307Z,15.50
2022-11-26T19:04:59.011Z,15.32
2022-11-26T19:07:34.606Z,14.00
2022-11-26T19:10:05.032Z,18.60
2022-11-26T19:12:33.149Z,16.00
2022-11-26T19:15:04.928Z,15.88
2022-11-26T19:17:32.757Z,16.85
2022-11-26T19:20:00.449Z,16.63
2022-11-26T19:22:28.196Z,16.15
2022-11-26T19:24:55.764Z,17.50
2022-11-26T19:27:24.772Z,15.88
2022-11-26T19:29:52.957Z,18.30
2022-11-26T19:32:20.730Z,17.48
2022-11-26T19:34:48.346Z,20.15
2022-11-26T19:37:16.079Z,20.27
2022-11-26T19:39:44.190Z,22.38
2022-11-26T19:42:11.932Z,23.38
2022-11-26T19:44:40.992Z,22.27
2022-11-26T19:47:08.827Z,21.75
2022-11-26T19:49:41.188Z,21.48
2022-11-26T19:52:09.116Z,22.17
2022-11-26T19:54:36.939Z,21.52
2022-11-26T19:57:04.973Z,21.25
2022-11-26T19:59:32.738Z,24.58
2022-11-26T20:02:01.970Z,23.88
2022-11-26T20:04:30.686Z,23.63
2022-11-26T20:06:59.024Z,23.40
2022-11-26T20:09:26.731Z,24.98
2022-11-26T20:11:54.568Z,24.60
2022-11-26T20:14:22.235Z,24.02
2022-11-26T20:16:49.922Z,22.63
2022-11-26T20:19:19.282Z,24.88
2022-11-26T20:21:46.992Z,22.88
2022-11-26T20:24:16.986Z,22.38
2022-11-26T20:26:48.423Z,22.65
2022-11-26T20:29:17.392Z,23.63
2022-11-26T20:31:47.466Z,22.02
2022-11-26T20:34:15.808Z,21.67
2022-11-26T20:36:45.230Z,21.52
2022-11-26T20:39:15.159Z,21.95
2022-11-26T20:41:43.278Z,21.88
2022-11-26T20:44:13.456Z,21.02
2022-11-26T20:46:41.985Z,20.98
2022-11-26T20:49:11.451Z,20.83
2022-11-26T20:51:39.552Z,22.58
2022-11-26T20:54:11.402Z,22.13
2022-11-26T20:56:39.143Z,23.02
2022-11-26T20:59:09.560Z,21.35
2022-11-26T21:01:37.803Z,21.63
2022-11-26T21:04:06.774Z,22.13
2022-11-26T21:06:35.509Z,22.60
2022-11-26T21:09:06.260Z,22.33
2022-11-26T21:11:37.491Z,22.95
2022-11-26T21:14:07.598Z,20.02
2022-11-26T21:16:38.521Z,21.80
2022-11-26T21:19:06.111Z,21.00
2022-11-26T21:21:33.802Z,21.80
2022-11-26T21:24:04.572Z,21.23
2022-11-26T21:26:32.743Z,21.98
2022-11-26T21:29:02.645Z,22.45
2022-11-26T21:31:31.591Z,22.27
2022-11-26T21:34:01.072Z,19.02
2022-11-26T21:36:30.409Z,20.33
2022-11-26T21:38:58.348Z,19.55
2022-11-26T21:41:26.333Z,20.35
2022-11-26T21:43:54.179Z,21.13
2022-11-26T21:46:27.049Z,20.80
2022-11-26T21:48:55.340Z,19.58
2022-11-26T21:51:24.530Z,21.42
2022-11-26T21:53:53.790Z,20.00
2022-11-26T21:56:23.236Z,19.77
2022-11-26T21:58:51.486Z,20.38
2022-11-26T22:01:24.281Z,20.20
2022-11-26T22:03:56.479Z,21.33
2022-11-26T22:06:24.761Z,20.58
2022-11-26T22:08:53.047Z,20.10
2022-11-26T22:11:23.299Z,19.20
2022-11-26T22:13:51.722Z,19.73
2022-11-26T22:16:21.525Z,20.30
2022-11-26T22:18:50.449Z,21.85
2022-11-26T22:21:21.397Z,19.70
2022-11-26T22:23:55.296Z,20.48
2022-11-26T22:26:23.309Z,19.50
2022-11-26T22:28:51.929Z,19.48
2022-11-26T22:31:22.074Z,20.30
2022-11-26T22:33:51.157Z,20.30
2022-11-26T22:36:20.184Z,18.20
2022-11-26T22:38:47.811Z,18.98
2022-11-26T22:41:16.177Z,18.02
2022-11-26T22:43:49.576Z,16.88
2022-11-26T22:46:19.622Z,18.13
2022-11-26T22:48:52.186Z,15.52
2022-11-26T22:51:21.816Z,15.05
2022-11-26T22:53:51.348Z,15.07
2022-11-26T22:56:21.686Z,15.70
2022-11-26T22:58:51.884Z,15.02
2022-11-26T23:01:21.586Z,16.02
2022-11-26T23:03:49.982Z,14.63
2022-11-26T23:06:19.279Z,15.15
2022-11-26T23:08:48.923Z,13.35
2022-11-26T23:11:19.984Z,14.07
2022-11-26T23:13:49.598Z,13.10
2022-11-26T23:16:18.124Z,12.88
2022-11-26T23:18:45.874Z,12.70
2022-11-26T23:21:15.970Z,12.07
2022-11-26T23:23:46.514Z,11.30
2022-11-26T23:26:24.879Z,11.35
2022-11-26T23:28:54.517Z,10.25
2022-11-26T23:31:24.075Z,9.90
2022-11-26T23:33:52.257Z,10.23
2022-11-26T23:36:21.054Z,10.88
2022-11-26T23:38:48.873Z,10.52
2022-11-26T23:41:18.111Z,9.63
2022-11-26T23:43:46.160Z,10.18
2022-11-26T23:46:17.460Z,9.10
2022-11-26T23:48:46.133Z,8.85
2022-11-26T23:51:16.270Z,8.25
2022-11-26T23:53:45.885Z,8.68
2022-11-26T23:56:17.077Z,7.93
2022-11-26T23:58:49.155Z,9.20
